Visalia, Kentucky
Current Conditions -  °F | °C
As of 5:52 AM on Thursday 23 Oct 2014 (Local Time) from KCVG Reporting Station
Clear Clear  
Wind Chill: 41°   Ceiling: Unl
Heat Index: 45°   Visibility: 9mi
Dew Point: 39°   Wind: 7mph
Humidity: 80%   Direction: 310°NW
Pressure: 30.24"   Gusts: NA
Location:  38.8354°N, 84.5143°W
Report Text: KCVG 230952Z 31006KT 9SM CLR 07/04 A3024 RMK AO2 SLP241 T00720039
Loading
Personal Weather Stations






























Interactive Weather Map
Tropical Storm Tracking
New forecast layout! Learn more

10-Day Weather Forecast

Advertisements
Track Severe Weather on mobile